Tiline, Kentucky
Current Conditions -  °F | °C
As of 4:55 AM on Friday 28 Nov 2014 (Local Time) from K5M9 Reporting Station
Clear Clear  
Wind Chill: 26°   Ceiling: Unl
Heat Index: 26°   Visibility: 7mi
Dew Point: 24°   Wind: 3mph
Humidity: 92%   Direction: 170°S
Pressure: 30.4"   Gusts: NA
Location:  37.17°N, 88.24°W
Report Text: K5M9 281055Z AUTO 17003KT 7SM CLR M03/M04 A3040 RMK AO2 T10331045
Loading
Personal Weather Stations






























Interactive Weather Map New forecast layout! Learn more

10-Day Weather Forecast

Advertisements
Track Severe Weather on mobile